createdAt,value
2019-01-23T00:08:27.789Z,-0.83
2019-01-23T00:11:16.808Z,-0.90
2019-01-23T00:26:49.182Z,-0.96
2019-01-23T00:30:35.763Z,-1.08
2019-01-23T00:33:21.102Z,-1.06
2019-01-23T00:42:28.643Z,-0.88
2019-01-23T00:45:27.962Z,-0.83
2019-01-23T00:52:38.673Z,-0.89
2019-01-23T00:56:31.507Z,-0.96
2019-01-23T00:59:30.019Z,-1.03
2019-01-23T01:06:22.564Z,-0.97
2019-01-23T01:15:33.973Z,-0.84
2019-01-23T01:30:28.973Z,-0.74
2019-01-23T01:32:09.683Z,-0.79
2019-01-23T01:35:00.282Z,-1.03
2019-01-23T01:37:58.041Z,-1.02
2019-01-23T01:40:45.699Z,-1.01
2019-01-23T01:43:29.556Z,-1.18
2019-01-23T01:46:20.782Z,-1.06
2019-01-23T01:55:18.440Z,-1.03
2019-01-23T01:58:19.011Z,-0.95
2019-01-23T02:10:13.172Z,-1.31
2019-01-23T02:13:10.127Z,-1.09
2019-01-23T02:15:47.950Z,-1.05
2019-01-23T02:28:31.479Z,-1.62
2019-01-23T02:40:02.077Z,-1.44
2019-01-23T02:48:11.575Z,-1.38
2019-01-23T02:51:23.510Z,-1.48
2019-01-23T02:54:09.908Z,-1.49
2019-01-23T02:57:31.334Z,-1.69
2019-01-23T03:00:42.924Z,-1.79
2019-01-23T03:07:00.227Z,-1.58
2019-01-23T03:20:10.198Z,-1.71
2019-01-23T03:33:34.578Z,-1.55
2019-01-23T03:36:26.030Z,-1.45
2019-01-23T03:50:34.285Z,-1.64
2019-01-23T03:57:03.932Z,-1.60
2019-01-23T03:59:54.905Z,-1.65
2019-01-23T04:02:53.473Z,-1.49
2019-01-23T04:08:42.491Z,-1.54
2019-01-23T04:15:03.033Z,-1.46
2019-01-23T04:22:09.912Z,-1.67
2019-01-23T04:25:12.283Z,-1.69
2019-01-23T04:29:00.070Z,-1.73
2019-01-23T04:32:04.944Z,-1.79
2019-01-23T04:41:30.837Z,-1.77
2019-01-23T04:44:36.767Z,-1.72
2019-01-23T04:47:17.040Z,-1.72
2019-01-23T04:49:52.148Z,-1.50
2019-01-23T04:52:33.815Z,-1.69
2019-01-23T04:58:48.533Z,-1.78
2019-01-23T05:01:25.685Z,-1.82
2019-01-23T05:04:28.999Z,-1.80
2019-01-23T05:19:54.363Z,-1.76
2019-01-23T05:23:33.781Z,-1.82
2019-01-23T05:26:10.161Z,-1.80
2019-01-23T05:29:03.654Z,-1.76
2019-01-23T05:31:56.735Z,-1.63
2019-01-23T05:38:14.602Z,-1.77
2019-01-23T05:44:28.437Z,-1.82
2019-01-23T05:47:17.165Z,-1.86
2019-01-23T05:50:16.393Z,-1.98
2019-01-23T05:53:15.993Z,-1.95
2019-01-23T05:59:16.209Z,-1.83
2019-01-23T06:01:52.750Z,-1.85
2019-01-23T06:04:37.976Z,-1.91
2019-01-23T06:10:20.731Z,-1.91
2019-01-23T06:13:21.775Z,-1.83
2019-01-23T06:20:52.085Z,-1.93
2019-01-23T06:23:40.137Z,-2.01
2019-01-23T06:26:44.261Z,-1.96
2019-01-23T06:30:30.127Z,-2.07
2019-01-23T06:33:30.927Z,-1.90
2019-01-23T06:36:31.170Z,-2.02
2019-01-23T06:39:31.620Z,-1.80
2019-01-23T06:42:57.753Z,-1.75
2019-01-23T06:48:36.228Z,-1.95
2019-01-23T06:54:45.432Z,-1.89
2019-01-23T06:58:03.060Z,-2.02
2019-01-23T07:30:47.725Z,-2.07
2019-01-23T07:58:14.991Z,-1.81
2019-01-23T08:01:06.076Z,-1.97
2019-01-23T08:04:08.550Z,-1.95
2019-01-23T08:15:18.301Z,-1.93
2019-01-23T08:27:56.779Z,-1.77
2019-01-23T08:30:52.668Z,-1.69
2019-01-23T09:32:53.193Z,-1.46
2019-01-23T09:35:32.284Z,-1.52
2019-01-23T09:41:19.906Z,-1.37
2019-01-23T09:50:15.755Z,-1.28
2019-01-23T10:02:24.023Z,-0.54
2019-01-23T10:14:59.367Z,-0.94
2019-01-23T10:21:16.669Z,-0.29
2019-01-23T10:24:03.348Z,-0.71
2019-01-23T10:27:26.130Z,-1.15
2019-01-23T10:29:52.894Z,-0.77
2019-01-23T10:32:22.804Z,-1.24
2019-01-23T10:34:52.388Z,-1.31
2019-01-23T10:37:22.013Z,-1.19
2019-01-23T10:39:52.376Z,-0.69
2019-01-23T10:42:22.098Z,-0.86
2019-01-23T10:44:51.683Z,-1.04
2019-01-23T10:47:21.258Z,-1.02
2019-01-23T10:49:50.836Z,-0.85
2019-01-23T10:52:20.420Z,-1.01
2019-01-23T10:54:50.029Z,-1.35
2019-01-23T10:57:19.620Z,-0.80
2019-01-23T10:59:49.299Z,-0.31
2019-01-23T11:02:18.939Z,-0.55
2019-01-23T11:04:48.537Z,-0.15
2019-01-23T11:07:18.100Z,-0.07
2019-01-23T11:09:49.238Z,-0.59
2019-01-23T11:12:18.765Z,0.13
2019-01-23T11:14:48.350Z,-0.36
2019-01-23T11:17:17.986Z,-0.67
2019-01-23T11:19:47.594Z,-0.79
2019-01-23T11:22:17.180Z,-0.92
2019-01-23T11:24:46.789Z,-0.47
2019-01-23T11:27:16.397Z,-0.30
2019-01-23T11:29:45.983Z,-0.32
2019-01-23T11:32:16.054Z,-0.31
2019-01-23T11:34:57.322Z,-0.42
2019-01-23T11:37:26.905Z,0.22
2019-01-23T11:39:56.542Z,0.13
2019-01-23T11:42:26.244Z,0.01
2019-01-23T11:44:55.910Z,0.50
2019-01-23T11:47:25.473Z,1.21
2019-01-23T11:49:55.062Z,-0.01
2019-01-23T11:52:24.676Z,-0.69
2019-01-23T11:54:54.257Z,-0.84
2019-01-23T11:57:23.844Z,-0.64
2019-01-23T11:59:53.539Z,-0.45
2019-01-23T12:02:23.110Z,-0.56
2019-01-23T12:04:52.691Z,-0.35
2019-01-23T12:07:22.334Z,-0.53
2019-01-23T12:09:51.925Z,-0.67
2019-01-23T12:12:21.502Z,-0.29
2019-01-23T12:14:51.142Z,-0.47
2019-01-23T12:17:20.750Z,-0.58
2019-01-23T12:19:52.809Z,-0.15
2019-01-23T12:22:22.448Z,-0.38
2019-01-23T12:24:52.059Z,-0.41
2019-01-23T12:27:21.688Z,0.23
2019-01-23T12:29:51.396Z,-0.11
2019-01-23T12:32:21.036Z,-0.22
2019-01-23T12:34:50.639Z,0.10
2019-01-23T12:37:20.268Z,0.05
2019-01-23T12:39:49.851Z,-0.09
2019-01-23T12:42:19.430Z,-0.52
2019-01-23T12:44:49.100Z,-0.38
2019-01-23T12:47:18.715Z,-0.27
2019-01-23T12:49:48.311Z,-0.17
2019-01-23T12:52:17.938Z,0.00
2019-01-23T12:54:47.517Z,0.12
2019-01-23T12:57:17.086Z,-0.26
2019-01-23T12:59:46.714Z,-0.59
2019-01-23T13:02:16.286Z,-0.55
2019-01-23T13:04:46.030Z,-0.42
2019-01-23T13:07:15.679Z,-0.28
2019-01-23T13:09:45.290Z,0.12
2019-01-23T13:12:34.210Z,-0.07
2019-01-23T13:15:05.168Z,-0.07
2019-01-23T13:17:34.745Z,-0.06
2019-01-23T13:20:07.376Z,0.16
2019-01-23T13:22:37.017Z,-0.47
2019-01-23T13:25:11.281Z,-0.87
2019-01-23T13:27:41.058Z,-0.96
2019-01-23T13:30:15.218Z,-1.03
2019-01-23T13:32:45.053Z,-0.93
2019-01-23T13:35:18.902Z,-0.97
2019-01-23T13:37:48.664Z,-1.14
2019-01-23T13:40:22.468Z,-1.05
2019-01-23T13:42:52.148Z,-1.09
2019-01-23T13:45:22.015Z,-1.02
2019-01-23T13:47:51.750Z,-0.61
2019-01-23T13:50:21.425Z,-0.71
2019-01-23T13:52:51.096Z,-1.00
2019-01-23T13:55:23.868Z,-0.85
2019-01-23T13:57:54.110Z,-0.69
2019-01-23T14:00:28.484Z,-0.92
2019-01-23T14:02:58.371Z,-0.71
2019-01-23T14:05:28.033Z,-0.54
2019-01-23T14:07:57.621Z,-0.61
2019-01-23T14:10:27.281Z,-0.90
2019-01-23T14:12:57.378Z,-0.91
2019-01-23T14:15:46.282Z,-0.84
2019-01-23T14:18:15.970Z,-0.86
2019-01-23T14:20:45.562Z,-0.74
2019-01-23T14:23:15.206Z,-0.40
2019-01-23T14:25:44.805Z,-0.69
2019-01-23T14:28:14.384Z,-0.91
2019-01-23T14:30:45.398Z,-0.93
2019-01-23T14:33:15.122Z,-0.61
2019-01-23T14:35:44.854Z,-0.90
2019-01-23T14:38:14.554Z,-0.82
2019-01-23T14:40:44.199Z,-1.10
2019-01-23T14:43:13.838Z,-1.08
2019-01-23T14:45:43.517Z,-1.13
2019-01-23T14:48:13.153Z,-1.30
2019-01-23T14:50:42.822Z,-0.99
2019-01-23T14:53:12.386Z,-1.11
2019-01-23T14:55:42.169Z,-0.92
2019-01-23T14:58:11.898Z,-0.83
2019-01-23T15:00:41.472Z,-0.94
2019-01-23T15:03:11.058Z,-1.10
2019-01-23T15:05:40.734Z,-1.07
2019-01-23T15:08:10.315Z,-1.01
2019-01-23T15:10:39.918Z,-1.08
2019-01-23T15:13:09.502Z,-0.84
2019-01-23T15:15:39.141Z,-0.91
2019-01-23T15:18:08.905Z,-0.97
2019-01-23T15:20:39.882Z,-0.63
2019-01-23T15:23:09.484Z,-0.75
2019-01-23T15:25:39.131Z,-0.98
2019-01-23T15:28:08.838Z,-1.05
2019-01-23T15:30:39.889Z,-1.25
2019-01-23T15:33:12.452Z,-1.29
2019-01-23T15:35:42.373Z,-1.35
2019-01-23T15:38:11.981Z,-1.21
2019-01-23T15:40:41.996Z,-1.26
2019-01-23T15:43:11.573Z,-1.16
2019-01-23T15:45:41.211Z,-1.40
2019-01-23T15:48:10.823Z,-1.24
2019-01-23T15:50:40.400Z,-1.32
2019-01-23T15:53:09.973Z,-1.21
2019-01-23T15:55:39.668Z,-1.37
2019-01-23T15:58:09.265Z,-1.21
2019-01-23T16:00:38.956Z,-1.15
2019-01-23T16:03:08.702Z,-1.13
2019-01-23T16:05:38.296Z,-1.15
2019-01-23T16:08:10.521Z,-1.09
2019-01-23T16:10:40.173Z,-1.23
2019-01-23T16:13:09.774Z,-1.26
2019-01-23T16:15:39.382Z,-1.60
2019-01-23T16:18:08.982Z,-1.60
2019-01-23T16:20:38.623Z,-1.34
2019-01-23T16:23:08.198Z,-1.44
2019-01-23T16:25:37.813Z,-1.24
2019-01-23T16:28:07.399Z,-1.18
2019-01-23T16:30:38.003Z,-1.02
2019-01-23T16:33:07.803Z,-1.52
2019-01-23T16:35:38.843Z,-1.27
2019-01-23T16:38:09.105Z,-1.26
2019-01-23T16:40:39.899Z,-1.19
2019-01-23T16:43:09.485Z,-1.55
2019-01-23T16:45:39.233Z,-1.54
2019-01-23T16:48:08.893Z,-1.41
2019-01-23T16:50:38.507Z,-1.52
2019-01-23T16:53:08.132Z,-1.44
2019-01-23T16:55:37.930Z,-1.60
2019-01-23T16:58:08.714Z,-1.77
2019-01-23T17:00:39.958Z,-1.75
2019-01-23T17:03:09.925Z,-1.70
2019-01-23T17:05:39.559Z,-1.49
2019-01-23T17:08:09.759Z,-1.66
2019-01-23T17:10:39.761Z,-1.80
2019-01-23T17:13:09.452Z,-1.87
2019-01-23T17:15:39.034Z,-1.71
2019-01-23T17:18:08.789Z,-1.82
2019-01-23T17:20:42.902Z,-1.57
2019-01-23T17:23:12.539Z,-1.52
2019-01-23T17:25:42.146Z,-1.85
2019-01-23T17:28:13.426Z,-1.58
2019-01-23T17:30:43.004Z,-1.61
2019-01-23T17:33:12.777Z,-1.76
2019-01-23T17:36:01.624Z,-1.62
2019-01-23T17:38:31.539Z,-1.44
2019-01-23T17:41:01.120Z,-1.32
2019-01-23T17:43:31.263Z,-1.41
2019-01-23T17:46:01.286Z,-1.38
2019-01-23T17:48:30.941Z,-1.76
2019-01-23T17:51:00.799Z,-1.83
2019-01-23T17:53:30.451Z,-1.57
2019-01-23T17:56:00.054Z,-1.61
2019-01-23T17:58:29.625Z,-1.67
2019-01-23T18:00:59.743Z,-1.82
2019-01-23T18:03:29.470Z,-1.89
2019-01-23T18:06:04.962Z,-1.62
2019-01-23T18:08:34.530Z,-1.87
2019-01-23T18:11:04.168Z,-1.89
2019-01-23T18:13:33.768Z,-1.97
2019-01-23T18:16:05.356Z,-1.82
2019-01-23T18:18:34.935Z,-1.63
2019-01-23T18:21:04.801Z,-1.60
2019-01-23T18:23:34.402Z,-1.71
2019-01-23T18:26:04.275Z,-1.46
2019-01-23T18:28:33.868Z,-1.85
2019-01-23T18:31:07.933Z,-1.88
2019-01-23T18:33:42.005Z,-1.84
2019-01-23T18:36:16.057Z,-1.88
2019-01-23T18:38:50.157Z,-2.05
2019-01-23T18:41:24.944Z,-1.86
2019-01-23T18:43:59.524Z,-1.57
2019-01-23T18:46:33.632Z,-1.68
2019-01-23T18:49:07.690Z,-1.73
2019-01-23T18:51:38.379Z,-1.67
2019-01-23T18:54:08.089Z,-1.93
2019-01-23T18:56:38.022Z,-1.87
2019-01-23T18:59:08.018Z,-1.91
2019-01-23T19:01:37.599Z,-1.88
2019-01-23T19:04:07.301Z,-1.64
2019-01-23T19:06:36.856Z,-1.91
2019-01-23T19:09:09.847Z,-1.81
2019-01-23T19:11:39.628Z,-1.85
2019-01-23T19:14:09.223Z,-2.10
2019-01-23T19:16:38.965Z,-2.07
2019-01-23T19:19:08.591Z,-2.21
2019-01-23T19:21:40.854Z,-2.23
2019-01-23T19:24:29.715Z,-2.25
2019-01-23T19:26:59.299Z,-2.28
2019-01-23T19:29:29.225Z,-2.30
2019-01-23T19:32:18.127Z,-2.24
2019-01-23T19:34:47.691Z,-2.08
2019-01-23T19:37:17.304Z,-2.05
2019-01-23T19:39:47.076Z,-1.93
2019-01-23T19:42:16.653Z,-2.23
2019-01-23T19:44:46.319Z,-2.16
2019-01-23T19:47:16.008Z,-2.10
2019-01-23T19:49:45.626Z,-2.08
2019-01-23T19:52:16.349Z,-1.97
2019-01-23T19:54:45.937Z,-2.12
2019-01-23T19:57:15.605Z,-2.03
2019-01-23T19:59:45.195Z,-1.93
2019-01-23T20:02:14.902Z,-1.97
2019-01-23T20:04:44.484Z,-1.95
2019-01-23T20:07:14.076Z,-2.02
2019-01-23T20:09:43.781Z,-1.84
2019-01-23T20:12:15.605Z,-1.71
2019-01-23T20:14:44.696Z,-1.95
2019-01-23T20:17:14.310Z,-1.94
2019-01-23T20:19:43.893Z,-1.77
2019-01-23T20:22:13.515Z,-1.89
2019-01-23T20:24:43.217Z,-1.93
2019-01-23T20:27:12.770Z,-1.88
2019-01-23T20:29:42.381Z,-1.92
2019-01-23T20:32:11.992Z,-1.78
2019-01-23T20:34:41.551Z,-1.71
2019-01-23T20:37:11.127Z,-1.52
2019-01-23T20:39:40.754Z,-1.70
2019-01-23T20:42:10.361Z,-1.72
2019-01-23T20:44:39.946Z,-1.63
2019-01-23T20:47:09.656Z,-1.39
2019-01-23T20:49:39.217Z,-1.41
2019-01-23T20:52:08.908Z,-1.47
2019-01-23T20:54:38.529Z,-1.35
2019-01-23T20:57:08.090Z,-1.63
2019-01-23T20:59:37.668Z,-1.58
2019-01-23T21:02:07.265Z,-1.63
2019-01-23T21:04:36.872Z,-1.79
2019-01-23T21:07:06.543Z,-1.54
2019-01-23T21:09:36.148Z,-1.60
2019-01-23T21:12:05.874Z,-1.53
2019-01-23T21:14:35.464Z,-1.38
2019-01-23T21:17:05.359Z,-1.40
2019-01-23T21:19:34.967Z,-1.54
2019-01-23T21:22:04.719Z,-1.35
2019-01-23T21:24:34.335Z,-1.34
2019-01-23T21:27:03.905Z,-1.25
2019-01-23T21:29:33.516Z,-1.34
2019-01-23T21:32:03.140Z,-1.64
2019-01-23T21:34:52.012Z,-1.39
2019-01-23T21:37:21.913Z,-1.43
2019-01-23T21:39:51.487Z,-1.24
2019-01-23T21:42:21.089Z,-1.14
2019-01-23T21:44:50.746Z,-1.09
2019-01-23T21:47:20.306Z,-1.56
2019-01-23T21:49:49.911Z,-1.49
2019-01-23T21:52:19.514Z,-1.56
2019-01-23T21:54:49.127Z,-1.48
2019-01-23T21:57:18.713Z,-1.28
2019-01-23T21:59:48.442Z,-1.45
2019-01-23T22:02:18.011Z,-1.26
2019-01-23T22:04:47.662Z,-1.27
2019-01-23T22:07:17.290Z,-1.36
2019-01-23T22:09:46.896Z,-1.56
2019-01-23T22:12:16.470Z,-1.56
2019-01-23T22:14:46.093Z,-1.72
2019-01-23T22:17:15.686Z,-1.69
2019-01-23T22:19:45.327Z,-1.53
2019-01-23T22:22:14.941Z,-1.75
2019-01-23T22:24:44.544Z,-1.47
2019-01-23T22:27:14.117Z,-1.56
2019-01-23T22:29:43.752Z,-1.57
2019-01-23T22:32:13.332Z,-1.33
2019-01-23T22:34:42.935Z,-1.23
2019-01-23T22:37:12.580Z,-1.16
2019-01-23T22:39:42.197Z,-1.12
2019-01-23T22:42:11.773Z,-1.05
2019-01-23T22:44:41.381Z,-1.23
2019-01-23T22:47:11.017Z,-1.41
2019-01-23T22:49:40.586Z,-1.86
2019-01-23T22:52:10.195Z,-1.56
2019-01-23T22:54:41.170Z,-1.58
2019-01-23T22:57:10.745Z,-1.35
2019-01-23T22:59:40.404Z,-1.38
2019-01-23T23:02:11.645Z,-1.28
2019-01-23T23:04:41.244Z,-1.21
2019-01-23T23:07:10.833Z,-1.65
2019-01-23T23:09:40.426Z,-1.40
2019-01-23T23:12:10.030Z,-1.35
2019-01-23T23:14:39.636Z,-1.39
2019-01-23T23:17:09.224Z,-1.54
2019-01-23T23:19:38.822Z,-1.63
2019-01-23T23:22:08.413Z,-1.44
2019-01-23T23:24:38.009Z,-1.39
2019-01-23T23:27:07.695Z,-1.34
2019-01-23T23:29:37.312Z,-1.26
2019-01-23T23:32:07.015Z,-1.38
2019-01-23T23:34:36.621Z,-1.35
2019-01-23T23:37:06.410Z,-1.65
2019-01-23T23:39:35.980Z,-1.47
2019-01-23T23:42:05.932Z,-1.35
2019-01-23T23:44:35.562Z,-1.30
2019-01-23T23:47:06.147Z,-1.09
2019-01-23T23:49:35.716Z,-1.66
2019-01-23T23:52:05.794Z,-1.49
2019-01-23T23:54:35.355Z,-1.29
2019-01-23T23:57:05.403Z,-1.39
2019-01-23T23:59:35.009Z,-1.83
